Time,TemperatureF,DewpointF,PressureIn,WindDirection,WindDirectionDegrees,WindSpeedMPH,WindSpeedGustMPH,Humidity,HourlyPrecipIn,Conditions,Clouds,dailyrainin,SoftwareType,DateUTC
2013-08-25 00:00:00,50.8,48.3,30.30,South,174,0.0,0.0,91,0.00,,,0.00,WeatherCatV1.20B785,2013-08-25 04:00:00,
2013-08-25 00:01:00,50.7,48.2,30.30,South,174,0.0,0.0,91,0.00,,,0.00,WeatherCatV1.20B785,2013-08-25 04:01:00,
2013-08-25 00:02:00,50.6,48.1,30.30,South,174,0.0,0.0,91,0.00,,,0.00,WeatherCatV1.20B785,2013-08-25 04:02:00,
2013-08-25 00:03:00,50.6,48.1,30.30,South,174,0.0,0.0,91,0.00,,,0.00,WeatherCatV1.20B785,2013-08-25 04:03:00,
2013-08-25 00:04:00,50.6,48.1,30.30,South,174,0.0,0.0,91,0.00,,,0.00,WeatherCatV1.20B785,2013-08-25 04:04:00,
2013-08-25 00:05:00,50.6,48.1,30.30,South,175,0.0,0.0,91,0.00,,,0.00,WeatherCatV1.20B785,2013-08-25 04:05:00,
2013-08-25 00:10:00,50.2,47.7,30.30,South,174,0.0,0.0,91,0.00,,,0.00,WeatherCatV1.20B785,2013-08-25 04:10:00,
2013-08-25 00:15:00,50.1,47.6,30.30,South,174,0.0,0.0,91,0.00,,,0.00,WeatherCatV1.20B785,2013-08-25 04:15:00,
2013-08-25 00:20:00,50.3,48.1,30.30,South,174,0.0,0.0,92,0.00,,,0.00,WeatherCatV1.20B785,2013-08-25 04:20:00,
2013-08-25 00:25:00,50.5,48.3,30.30,South,174,0.0,0.0,92,0.00,,,0.00,WeatherCatV1.20B785,2013-08-25 04:25:00,
2013-08-25 00:30:00,50.5,48.3,30.30,South,174,0.0,0.0,92,0.00,,,0.00,WeatherCatV1.20B785,2013-08-25 04:30:00,
2013-08-25 00:35:00,50.2,47.7,30.30,South,174,0.0,0.0,91,0.00,,,0.00,WeatherCatV1.20B785,2013-08-25 04:35:00,
2013-08-25 00:40:00,49.9,47.4,30.30,South,174,0.0,0.0,91,0.00,,,0.00,WeatherCatV1.20B785,2013-08-25 04:40:00,
2013-08-25 00:45:00,49.9,47.7,30.30,South,174,0.0,0.0,92,0.00,,,0.00,WeatherCatV1.20B785,2013-08-25 04:45:00,
2013-08-25 00:50:00,50.0,47.8,30.30,South,175,0.0,0.0,92,0.00,,,0.00,WeatherCatV1.20B785,2013-08-25 04:50:00,
2013-08-25 00:55:00,50.2,48.0,30.30,South,174,0.0,0.0,92,0.00,,,0.00,WeatherCatV1.20B785,2013-08-25 04:55:00,
2013-08-25 01:00:00,50.1,47.9,30.30,South,174,0.0,0.0,92,0.00,,,0.00,WeatherCatV1.20B785,2013-08-25 05:00:00,
2013-08-25 01:05:00,49.9,47.7,30.30,South,174,0.0,0.0,92,0.00,,,0.00,WeatherCatV1.20B785,2013-08-25 05:05:00,
2013-08-25 01:10:00,49.7,47.5,30.30,South,175,0.0,0.0,92,0.00,,,0.00,WeatherCatV1.20B785,2013-08-25 05:10:00,
2013-08-25 01:15:00,49.4,46.9,30.30,South,174,0.0,0.0,91,0.00,,,0.00,WeatherCatV1.20B785,2013-08-25 05:15:00,
2013-08-25 01:20:00,49.2,47.0,30.30,South,174,0.0,0.0,92,0.00,,,0.00,WeatherCatV1.20B785,2013-08-25 05:20:00,
2013-08-25 01:25:00,49.1,46.9,30.30,South,174,0.0,0.0,92,0.00,,,0.00,WeatherCatV1.20B785,2013-08-25 05:25:00,
2013-08-25 01:30:00,49.2,47.0,30.30,South,174,0.0,0.0,92,0.00,,,0.00,WeatherCatV1.20B785,2013-08-25 05:30:00,
2013-08-25 01:35:00,49.2,47.0,30.30,South,174,0.0,0.0,92,0.00,,,0.00,WeatherCatV1.20B785,2013-08-25 05:35:00,
2013-08-25 01:40:00,49.1,46.9,30.30,South,174,0.0,0.0,92,0.00,,,0.00,WeatherCatV1.20B785,2013-08-25 05:40:00,
2013-08-25 01:45:00,49.1,46.9,30.30,South,174,0.0,0.0,92,0.00,,,0.00,WeatherCatV1.20B785,2013-08-25 05:45:00,
2013-08-25 01:50:00,49.3,47.1,30.30,South,174,0.0,0.0,92,0.00,,,0.00,WeatherCatV1.20B785,2013-08-25 05:50:00,
2013-08-25 01:55:00,49.3,47.1,30.31,South,175,0.0,0.0,92,0.00,,,0.00,WeatherCatV1.20B785,2013-08-25 05:55:00,
2013-08-25 02:00:00,49.3,47.1,30.30,South,174,0.0,0.0,92,0.00,,,0.00,WeatherCatV1.20B785,2013-08-25 06:00:00,
2013-08-25 02:05:00,49.7,47.5,30.31,SSE,164,0.0,0.0,92,0.00,,,0.00,WeatherCatV1.20B785,2013-08-25 06:05:00,
2013-08-25 02:10:00,50.0,47.8,30.30,SSE,163,0.0,0.0,92,0.00,,,0.00,WeatherCatV1.20B785,2013-08-25 06:10:00,
2013-08-25 02:15:00,50.2,48.0,30.30,SSE,164,0.0,0.0,92,0.00,,,0.00,WeatherCatV1.20B785,2013-08-25 06:15:00,
2013-08-25 02:20:00,50.2,48.0,30.30,SSE,163,0.0,0.0,92,0.00,,,0.00,WeatherCatV1.20B785,2013-08-25 06:20:00,
2013-08-25 02:25:00,50.0,47.8,30.30,SSE,163,0.0,0.0,92,0.00,,,0.00,WeatherCatV1.20B785,2013-08-25 06:25:00,
2013-08-25 02:30:00,49.7,47.5,30.30,SSE,163,0.0,0.0,92,0.00,,,0.00,WeatherCatV1.20B785,2013-08-25 06:30:00,
2013-08-25 02:35:00,49.5,47.3,30.29,SSE,163,0.0,0.0,92,0.00,,,0.00,WeatherCatV1.20B785,2013-08-25 06:35:00,
2013-08-25 02:40:00,49.3,47.1,30.29,SSE,164,0.0,0.0,92,0.00,,,0.00,WeatherCatV1.20B785,2013-08-25 06:40:00,
2013-08-25 02:45:00,49.0,46.8,30.29,SSE,163,0.0,0.0,92,0.00,,,0.00,WeatherCatV1.20B785,2013-08-25 06:45:00,
2013-08-25 02:50:00,48.7,46.5,30.29,SSE,163,0.0,0.0,92,0.00,,,0.00,WeatherCatV1.20B785,2013-08-25 06:50:00,
2013-08-25 02:55:00,48.9,46.7,30.30,SSE,164,0.0,0.0,92,0.00,,,0.00,WeatherCatV1.20B785,2013-08-25 06:55:00,
2013-08-25 03:00:00,48.8,46.6,30.29,SSE,163,0.0,0.0,92,0.00,,,0.00,WeatherCatV1.20B785,2013-08-25 07:00:00,
2013-08-25 03:05:00,48.7,46.5,30.29,SSE,163,0.0,0.0,92,0.00,,,0.00,WeatherCatV1.20B785,2013-08-25 07:05:00,
2013-08-25 03:10:00,48.6,46.4,30.30,SSE,164,0.0,0.0,92,0.00,,,0.00,WeatherCatV1.20B785,2013-08-25 07:10:00,
2013-08-25 03:15:00,48.7,46.5,30.29,SSE,163,0.0,0.0,92,0.00,,,0.00,WeatherCatV1.20B785,2013-08-25 07:15:00,
2013-08-25 03:20:00,48.5,46.3,30.29,SSE,164,0.0,0.0,92,0.00,,,0.00,WeatherCatV1.20B785,2013-08-25 07:20:00,
2013-08-25 03:25:00,48.1,45.9,30.29,SSE,164,0.0,0.0,92,0.00,,,0.00,WeatherCatV1.20B785,2013-08-25 07:25:00,
2013-08-25 03:30:00,47.7,45.5,30.29,SSE,164,0.0,0.0,92,0.00,,,0.00,WeatherCatV1.20B785,2013-08-25 07:30:00,
2013-08-25 03:35:00,47.5,45.3,30.30,SSE,163,0.0,0.0,92,0.00,,,0.00,WeatherCatV1.20B785,2013-08-25 07:35:00,
2013-08-25 03:40:00,47.4,45.2,30.30,SSE,163,0.0,0.0,92,0.00,,,0.00,WeatherCatV1.20B785,2013-08-25 07:40:00,
2013-08-25 03:45:00,47.4,45.2,30.30,SSE,164,0.0,0.0,92,0.00,,,0.00,WeatherCatV1.20B785,2013-08-25 07:45:00,
2013-08-25 03:50:00,47.2,45.0,30.31,SSE,163,0.0,0.0,92,0.00,,,0.00,WeatherCatV1.20B785,2013-08-25 07:50:00,
2013-08-25 03:55:00,47.0,44.8,30.31,SSE,163,0.0,0.0,92,0.00,,,0.00,WeatherCatV1.20B785,2013-08-25 07:55:00,
2013-08-25 04:00:00,46.8,44.6,30.31,SSE,163,0.0,0.0,92,0.00,,,0.00,WeatherCatV1.20B785,2013-08-25 08:00:00,
2013-08-25 04:05:00,46.7,44.5,30.31,SSE,163,0.0,0.0,92,0.00,,,0.00,WeatherCatV1.20B785,2013-08-25 08:05:00,
2013-08-25 04:10:00,46.7,44.5,30.31,SSE,163,0.0,0.0,92,0.00,,,0.00,WeatherCatV1.20B785,2013-08-25 08:10:00,
2013-08-25 04:15:00,46.4,44.2,30.31,SSE,163,0.0,0.0,92,0.00,,,0.00,WeatherCatV1.20B785,2013-08-25 08:15:00,
2013-08-25 04:20:00,46.2,44.0,30.32,SSE,164,0.0,0.0,92,0.00,,,0.00,WeatherCatV1.20B785,2013-08-25 08:20:00,
2013-08-25 04:25:00,46.0,43.8,30.32,SSE,163,0.0,0.0,92,0.00,,,0.00,WeatherCatV1.20B785,2013-08-25 08:25:00,
2013-08-25 04:30:00,45.9,43.7,30.32,SSE,164,0.0,0.0,92,0.00,,,0.00,WeatherCatV1.20B785,2013-08-25 08:30:00,
2013-08-25 04:35:00,46.2,44.0,30.32,SSE,163,0.0,0.0,92,0.00,,,0.00,WeatherCatV1.20B785,2013-08-25 08:35:00,
2013-08-25 04:40:00,45.9,43.7,30.32,SSE,164,0.0,0.0,92,0.00,,,0.00,WeatherCatV1.20B785,2013-08-25 08:40:00,
2013-08-25 04:45:00,45.7,43.5,30.33,SSE,163,0.0,0.0,92,0.00,,,0.00,WeatherCatV1.20B785,2013-08-25 08:45:00,
2013-08-25 04:50:00,45.8,43.6,30.33,SSE,164,0.0,0.0,92,0.00,,,0.00,WeatherCatV1.20B785,2013-08-25 08:50:00,
2013-08-25 04:55:00,45.9,43.7,30.33,SSE,163,0.0,0.0,92,0.00,,,0.00,WeatherCatV1.20B785,2013-08-25 08:55:00,
2013-08-25 05:00:00,45.7,43.8,30.33,SSE,164,0.0,0.0,93,0.00,,,0.00,WeatherCatV1.20B785,2013-08-25 09:00:00,
2013-08-25 05:05:00,45.5,43.3,30.33,SSE,164,0.0,0.0,92,0.00,,,0.00,WeatherCatV1.20B785,2013-08-25 09:05:00,
2013-08-25 05:10:00,45.3,43.1,30.33,SSE,163,0.0,0.0,92,0.00,,,0.00,WeatherCatV1.20B785,2013-08-25 09:10:00,
2013-08-25 05:15:00,45.1,42.9,30.33,SSE,164,0.0,0.0,92,0.00,,,0.00,WeatherCatV1.20B785,2013-08-25 09:15:00,
2013-08-25 05:20:00,45.1,42.9,30.33,SSE,164,0.0,0.0,92,0.00,,,0.00,WeatherCatV1.20B785,2013-08-25 09:20:00,
2013-08-25 05:25:00,45.2,43.0,30.33,SSE,164,0.0,0.0,92,0.00,,,0.00,WeatherCatV1.20B785,2013-08-25 09:25:00,
2013-08-25 05:30:00,45.0,42.8,30.33,SSE,163,0.0,0.0,92,0.00,,,0.00,WeatherCatV1.20B785,2013-08-25 09:30:00,
2013-08-25 05:35:00,44.9,42.7,30.33,SSE,164,0.0,0.0,92,0.00,,,0.00,WeatherCatV1.20B785,2013-08-25 09:35:00,
2013-08-25 05:40:00,44.9,42.7,30.33,SSE,164,0.0,0.0,92,0.00,,,0.00,WeatherCatV1.20B785,2013-08-25 09:40:00,
2013-08-25 05:45:00,45.2,43.3,30.32,SSE,163,0.0,0.0,93,0.00,,,0.00,WeatherCatV1.20B785,2013-08-25 09:45:00,
2013-08-25 05:50:00,45.3,43.4,30.33,SSE,164,0.0,0.0,93,0.00,,,0.00,WeatherCatV1.20B785,2013-08-25 09:50:00,
2013-08-25 05:55:00,45.3,43.4,30.33,SSE,163,0.0,0.0,93,0.00,,,0.00,WeatherCatV1.20B785,2013-08-25 09:55:00,
2013-08-25 06:00:00,45.5,43.6,30.32,SSE,163,0.0,0.0,93,0.00,,,0.00,WeatherCatV1.20B785,2013-08-25 10:00:00,
2013-08-25 06:05:00,45.3,43.4,30.33,SSE,164,0.0,0.0,93,0.00,,,0.00,WeatherCatV1.20B785,2013-08-25 10:05:00,
2013-08-25 06:10:00,45.5,43.6,30.33,SSE,163,0.0,0.0,93,0.00,,,0.00,WeatherCatV1.20B785,2013-08-25 10:10:00,
2013-08-25 06:15:00,45.8,43.9,30.33,SSE,164,0.0,0.0,93,0.00,,,0.00,WeatherCatV1.20B785,2013-08-25 10:15:00,
2013-08-25 06:20:00,45.4,43.5,30.33,SSE,163,0.0,0.0,93,0.00,,,0.00,WeatherCatV1.20B785,2013-08-25 10:20:00,
2013-08-25 06:25:00,45.4,43.5,30.33,SSE,163,0.0,0.0,93,0.00,,,0.00,WeatherCatV1.20B785,2013-08-25 10:25:00,
2013-08-25 06:30:00,45.3,43.4,30.33,SSE,164,0.0,0.0,93,0.00,,,0.00,WeatherCatV1.20B785,2013-08-25 10:30:00,
2013-08-25 06:35:00,45.4,43.5,30.34,SSE,164,0.0,0.0,93,0.00,,,0.00,WeatherCatV1.20B785,2013-08-25 10:35:00,
2013-08-25 06:40:00,45.4,43.5,30.34,SSE,163,0.0,0.0,93,0.00,,,0.00,WeatherCatV1.20B785,2013-08-25 10:40:00,
2013-08-25 06:45:00,45.4,43.5,30.34,SSE,164,0.0,0.0,93,0.00,,,0.00,WeatherCatV1.20B785,2013-08-25 10:45:00,
2013-08-25 06:50:00,45.5,43.6,30.34,SSE,164,0.0,0.0,93,0.00,,,0.00,WeatherCatV1.20B785,2013-08-25 10:50:00,
2013-08-25 06:55:00,45.6,43.7,30.34,SSE,164,0.0,0.0,93,0.00,,,0.00,WeatherCatV1.20B785,2013-08-25 10:55:00,
2013-08-25 07:00:00,45.7,43.8,30.34,SSE,163,0.0,0.0,93,0.00,,,0.00,WeatherCatV1.20B785,2013-08-25 11:00:00,
2013-08-25 07:05:00,46.1,44.2,30.34,SSE,164,0.0,0.0,93,0.00,,,0.00,WeatherCatV1.20B785,2013-08-25 11:05:00,
2013-08-25 07:10:00,47.0,45.1,30.34,SSE,163,0.0,0.0,93,0.00,,,0.00,WeatherCatV1.20B785,2013-08-25 11:10:00,
2013-08-25 07:15:00,47.7,45.8,30.34,SSE,164,0.0,0.0,93,0.00,,,0.00,WeatherCatV1.20B785,2013-08-25 11:15:00,
2013-08-25 07:20:00,48.6,46.7,30.34,SSE,163,0.0,0.0,93,0.00,,,0.00,WeatherCatV1.20B785,2013-08-25 11:20:00,
2013-08-25 07:25:00,49.0,47.1,30.35,SSE,163,0.0,0.0,93,0.00,,,0.00,WeatherCatV1.20B785,2013-08-25 11:25:00,
2013-08-25 07:30:00,49.1,47.2,30.35,SSE,164,0.0,0.0,93,0.00,,,0.00,WeatherCatV1.20B785,2013-08-25 11:30:00,
2013-08-25 07:35:00,49.6,47.4,30.35,SSE,163,0.0,0.0,92,0.00,,,0.00,WeatherCatV1.20B785,2013-08-25 11:35:00,
2013-08-25 07:40:00,49.9,47.7,30.35,SSE,163,0.0,0.0,92,0.00,,,0.00,WeatherCatV1.20B785,2013-08-25 11:40:00,
2013-08-25 07:45:00,50.4,48.2,30.35,SSE,163,0.0,0.0,92,0.00,,,0.00,WeatherCatV1.20B785,2013-08-25 11:45:00,
2013-08-25 07:50:00,51.3,49.0,30.35,SSE,164,0.0,0.0,92,0.00,,,0.00,WeatherCatV1.20B785,2013-08-25 11:50:00,
2013-08-25 07:55:00,52.0,49.8,30.35,SSE,163,0.0,0.0,92,0.00,,,0.00,WeatherCatV1.20B785,2013-08-25 11:55:00,
2013-08-25 08:00:00,52.5,50.2,30.35,SSE,164,0.0,0.0,92,0.00,,,0.00,WeatherCatV1.20B785,2013-08-25 12:00:00,
2013-08-25 08:05:00,53.4,51.1,30.35,SSE,164,0.0,0.0,92,0.00,,,0.00,WeatherCatV1.20B785,2013-08-25 12:05:00,
2013-08-25 08:10:00,54.1,52.1,30.34,SSE,164,0.0,0.0,93,0.00,,,0.00,WeatherCatV1.20B785,2013-08-25 12:10:00,
2013-08-25 08:15:00,54.9,52.9,30.35,SSE,163,0.0,0.0,93,0.00,,,0.00,WeatherCatV1.20B785,2013-08-25 12:15:00,
2013-08-25 08:20:00,55.9,53.9,30.35,SSE,164,0.0,0.0,93,0.00,,,0.00,WeatherCatV1.20B785,2013-08-25 12:20:00,
2013-08-25 08:25:00,56.7,54.7,30.35,SSE,163,0.0,0.0,93,0.00,,,0.00,WeatherCatV1.20B785,2013-08-25 12:25:00,
2013-08-25 08:30:00,56.4,54.1,30.35,East,85,0.0,1.0,92,0.00,,,0.00,WeatherCatV1.20B785,2013-08-25 12:30:00,
2013-08-25 08:35:00,56.6,54.3,30.35,East,86,0.0,1.0,92,0.00,,,0.00,WeatherCatV1.20B785,2013-08-25 12:35:00,
2013-08-25 08:40:00,57.1,54.8,30.35,SE,134,1.0,2.0,92,0.00,,,0.00,WeatherCatV1.20B785,2013-08-25 12:40:00,
2013-08-25 08:45:00,58.0,55.7,30.34,SSE,153,0.0,1.0,92,0.00,,,0.00,WeatherCatV1.20B785,2013-08-25 12:45:00,
2013-08-25 08:50:00,58.6,56.0,30.34,ESE,109,2.0,4.0,91,0.00,,,0.00,WeatherCatV1.20B785,2013-08-25 12:50:00,
2013-08-25 08:55:00,59.3,56.4,30.34,ENE,74,1.0,1.0,90,0.00,,,0.00,WeatherCatV1.20B785,2013-08-25 12:55:00,
2013-08-25 09:00:00,60.1,57.2,30.34,East,84,0.0,0.0,90,0.00,,,0.00,WeatherCatV1.20B785,2013-08-25 13:00:00,
2013-08-25 09:01:00,60.0,57.0,30.34,East,84,0.0,0.0,90,0.00,,,0.00,WeatherCatV1.20B785,2013-08-25 13:01:00,
2013-08-25 09:05:00,61.1,57.5,30.33,SE,126,0.0,1.0,88,0.00,,,0.00,WeatherCatV1.20B785,2013-08-25 13:05:00,
2013-08-25 09:06:00,61.0,57.4,30.33,SSE,150,0.0,0.0,88,0.00,,,0.00,WeatherCatV1.20B785,2013-08-25 13:06:00,
2013-08-25 09:10:00,62.0,58.1,30.33,SSE,147,0.0,1.0,87,0.00,,,0.00,WeatherCatV1.20B785,2013-08-25 13:10:00,
2013-08-25 09:11:00,62.0,58.1,30.33,SSE,159,0.0,1.0,87,0.00,,,0.00,WeatherCatV1.20B785,2013-08-25 13:11:00,
2013-08-25 09:15:00,63.1,58.5,30.33,SE,131,0.0,2.0,85,0.00,,,0.00,WeatherCatV1.20B785,2013-08-25 13:15:00,
2013-08-25 09:16:00,63.0,58.4,30.33,ENE,77,2.0,2.0,85,0.00,,,0.00,WeatherCatV1.20B785,2013-08-25 13:16:00,
2013-08-25 09:20:00,63.1,58.5,30.33,East,94,0.0,2.0,85,0.00,,,0.00,WeatherCatV1.20B785,2013-08-25 13:20:00,
2013-08-25 09:21:00,63.2,58.6,30.33,ENE,74,0.0,1.0,85,0.00,,,0.00,WeatherCatV1.20B785,2013-08-25 13:21:00,
2013-08-25 09:25:00,63.3,58.4,30.32,East,82,1.0,2.0,84,0.00,,,0.00,WeatherCatV1.20B785,2013-08-25 13:25:00,
2013-08-25 09:26:00,63.3,58.4,30.32,ENE,77,1.0,2.0,84,0.00,,,0.00,WeatherCatV1.20B785,2013-08-25 13:26:00,
2013-08-25 09:30:00,63.5,58.6,30.33,ENE,76,1.0,0.0,84,0.00,,,0.00,WeatherCatV1.20B785,2013-08-25 13:30:00,
2013-08-25 09:31:00,63.5,58.9,30.33,NE,44,0.0,1.0,85,0.00,,,0.00,WeatherCatV1.20B785,2013-08-25 13:31:00,
2013-08-25 09:35:00,64.4,60.1,30.33,East,79,0.0,1.0,86,0.00,,,0.00,WeatherCatV1.20B785,2013-08-25 13:35:00,
2013-08-25 09:36:00,64.5,59.5,30.33,East,85,0.0,1.0,84,0.00,,,0.00,WeatherCatV1.20B785,2013-08-25 13:36:00,
2013-08-25 09:40:00,64.7,59.4,30.33,East,80,1.0,2.0,83,0.00,,,0.00,WeatherCatV1.20B785,2013-08-25 13:40:00,
2013-08-25 09:41:00,64.7,59.1,30.33,East,85,1.0,2.0,82,0.00,,,0.00,WeatherCatV1.20B785,2013-08-25 13:41:00,
2013-08-25 09:45:00,65.3,60.0,30.33,East,94,1.0,2.0,83,0.00,,,0.00,WeatherCatV1.20B785,2013-08-25 13:45:00,
2013-08-25 09:46:00,65.3,60.0,30.33,East,81,2.0,2.0,83,0.00,,,0.00,WeatherCatV1.20B785,2013-08-25 13:46:00,
2013-08-25 09:50:00,65.8,60.2,30.33,ENE,66,0.0,0.0,82,0.00,,,0.00,WeatherCatV1.20B785,2013-08-25 13:50:00,
2013-08-25 09:51:00,65.8,60.1,30.33,ENE,67,0.0,0.0,82,0.00,,,0.00,WeatherCatV1.20B785,2013-08-25 13:51:00,
2013-08-25 09:55:00,66.5,60.5,30.33,ENE,66,0.0,0.0,81,0.00,,,0.00,WeatherCatV1.20B785,2013-08-25 13:55:00,
2013-08-25 09:56:00,66.4,60.4,30.33,ENE,67,0.0,0.0,81,0.00,,,0.00,WeatherCatV1.20B785,2013-08-25 13:56:00,
2013-08-25 10:00:00,67.3,61.3,30.33,ENE,64,0.0,1.0,81,0.00,,,0.00,WeatherCatV1.20B785,2013-08-25 14:00:00,
2013-08-25 10:01:00,67.3,61.3,30.33,ENE,68,0.0,2.0,81,0.00,,,0.00,WeatherCatV1.20B785,2013-08-25 14:01:00,
2013-08-25 10:05:00,68.0,61.9,30.33,ENE,68,0.0,2.0,81,0.00,,,0.00,WeatherCatV1.20B785,2013-08-25 14:05:00,
2013-08-25 10:06:00,68.0,61.9,30.33,ENE,69,1.0,2.0,81,0.00,,,0.00,WeatherCatV1.20B785,2013-08-25 14:06:00,
2013-08-25 10:10:00,68.8,62.4,30.33,ENE,78,0.0,2.0,80,0.00,,,0.00,WeatherCatV1.20B785,2013-08-25 14:10:00,
2013-08-25 10:11:00,68.7,62.3,30.33,East,100,0.0,2.0,80,0.00,,,0.00,WeatherCatV1.20B785,2013-08-25 14:11:00,
2013-08-25 10:15:00,69.7,62.9,30.32,SSE,148,0.0,0.0,79,0.00,,,0.00,WeatherCatV1.20B785,2013-08-25 14:15:00,
2013-08-25 10:16:00,69.6,62.8,30.32,SSE,162,0.0,1.0,79,0.00,,,0.00,WeatherCatV1.20B785,2013-08-25 14:16:00,
2013-08-25 10:20:00,70.7,62.7,30.32,ESE,103,0.0,0.0,76,0.00,,,0.00,WeatherCatV1.20B785,2013-08-25 14:20:00,
2013-08-25 10:21:00,70.6,62.7,30.32,East,86,0.0,0.0,76,0.00,,,0.00,WeatherCatV1.20B785,2013-08-25 14:21:00,
2013-08-25 10:25:00,71.4,63.4,30.32,ENE,62,0.0,1.0,76,0.00,,,0.00,WeatherCatV1.20B785,2013-08-25 14:25:00,
2013-08-25 10:26:00,71.4,63.4,30.32,NE,56,1.0,1.0,76,0.00,,,0.00,WeatherCatV1.20B785,2013-08-25 14:26:00,
2013-08-25 10:30:00,72.0,63.6,30.32,ENE,61,1.0,0.0,75,0.00,,,0.00,WeatherCatV1.20B785,2013-08-25 14:30:00,
2013-08-25 10:31:00,71.9,62.8,30.33,ENE,63,0.0,1.0,73,0.00,,,0.00,WeatherCatV1.20B785,2013-08-25 14:31:00,
2013-08-25 10:35:00,73.1,63.9,30.33,NE,36,1.0,1.0,73,0.00,,,0.00,WeatherCatV1.20B785,2013-08-25 14:35:00,
2013-08-25 10:36:00,73.1,63.5,30.33,North,9,0.0,2.0,72,0.00,,,0.00,WeatherCatV1.20B785,2013-08-25 14:36:00,
2013-08-25 10:40:00,73.5,63.1,30.33,NNE,24,0.0,3.0,70,0.00,,,0.00,WeatherCatV1.20B785,2013-08-25 14:40:00,
2013-08-25 10:41:00,73.5,61.4,30.33,North,350,1.0,3.0,66,0.00,,,0.00,WeatherCatV1.20B785,2013-08-25 14:41:00,
2013-08-25 10:45:00,73.7,62.9,30.32,North,4,1.0,3.0,69,0.00,,,0.00,WeatherCatV1.20B785,2013-08-25 14:45:00,
2013-08-25 10:46:00,73.7,62.9,30.33,North,350,2.0,2.0,69,0.00,,,0.00,WeatherCatV1.20B785,2013-08-25 14:46:00,
2013-08-25 10:50:00,74.0,62.3,30.32,North,4,1.0,2.0,67,0.00,,,0.00,WeatherCatV1.20B785,2013-08-25 14:50:00,
2013-08-25 10:51:00,74.0,62.3,30.32,North,358,1.0,2.0,67,0.00,,,0.00,WeatherCatV1.20B785,2013-08-25 14:51:00,
2013-08-25 10:55:00,73.8,61.3,30.32,WNW,286,1.0,2.0,65,0.00,,,0.00,WeatherCatV1.20B785,2013-08-25 14:55:00,
2013-08-25 10:56:00,73.8,61.3,30.32,West,269,1.0,2.0,65,0.00,,,0.00,WeatherCatV1.20B785,2013-08-25 14:56:00,
2013-08-25 11:00:00,74.2,63.4,30.32,WSW,248,1.0,2.0,69,0.00,,,0.00,WeatherCatV1.20B785,2013-08-25 15:00:00,
2013-08-25 11:01:00,74.2,63.4,30.32,West,262,0.0,2.0,69,0.00,,,0.00,WeatherCatV1.20B785,2013-08-25 15:01:00,
2013-08-25 11:05:00,74.4,61.4,30.32,SW,221,1.0,2.0,64,0.00,,,0.00,WeatherCatV1.20B785,2013-08-25 15:05:00,
2013-08-25 11:06:00,74.5,61.5,30.32,South,185,0.0,2.0,64,0.00,,,0.00,WeatherCatV1.20B785,2013-08-25 15:06:00,
2013-08-25 11:10:00,75.0,62.0,30.32,WSW,237,1.0,3.0,64,0.00,,,0.00,WeatherCatV1.20B785,2013-08-25 15:10:00,
2013-08-25 11:11:00,75.0,62.0,30.32,SSW,205,1.0,4.0,64,0.00,,,0.00,WeatherCatV1.20B785,2013-08-25 15:11:00,
2013-08-25 11:15:00,75.7,63.1,30.32,SW,235,1.0,2.0,65,0.00,,,0.00,WeatherCatV1.20B785,2013-08-25 15:15:00,
2013-08-25 11:16:00,75.7,62.6,30.32,West,274,1.0,2.0,64,0.00,,,0.00,WeatherCatV1.20B785,2013-08-25 15:16:00,
2013-08-25 11:20:00,75.9,61.0,30.32,WSW,254,1.0,0.0,60,0.00,,,0.00,WeatherCatV1.20B785,2013-08-25 15:20:00,
2013-08-25 11:21:00,76.0,61.1,30.32,West,271,0.0,1.0,60,0.00,,,0.00,WeatherCatV1.20B785,2013-08-25 15:21:00,
2013-08-25 11:25:00,76.6,62.6,30.32,West,271,1.0,1.0,62,0.00,,,0.00,WeatherCatV1.20B785,2013-08-25 15:25:00,
2013-08-25 11:26:00,76.6,62.6,30.32,West,262,2.0,3.0,62,0.00,,,0.00,WeatherCatV1.20B785,2013-08-25 15:26:00,
2013-08-25 11:30:00,76.4,59.5,30.32,West,280,1.0,2.0,56,0.00,,,0.00,WeatherCatV1.20B785,2013-08-25 15:30:00,
2013-08-25 11:31:00,76.4,60.5,30.32,West,264,1.0,2.0,58,0.00,,,0.00,WeatherCatV1.20B785,2013-08-25 15:31:00,
2013-08-25 11:35:00,76.4,61.9,30.32,West,269,1.0,1.0,61,0.00,,,0.00,WeatherCatV1.20B785,2013-08-25 15:35:00,
2013-08-25 11:36:00,76.5,62.0,30.32,NNW,344,1.0,1.0,61,0.00,,,0.00,WeatherCatV1.20B785,2013-08-25 15:36:00,
2013-08-25 11:40:00,77.0,59.6,30.32,WSW,252,1.0,2.0,55,0.00,,,0.00,WeatherCatV1.20B785,2013-08-25 15:40:00,
2013-08-25 11:41:00,77.0,59.6,30.32,West,273,1.0,2.0,55,0.00,,,0.00,WeatherCatV1.20B785,2013-08-25 15:41:00,
2013-08-25 11:45:00,77.1,62.6,30.31,WSW,254,1.0,2.0,61,0.00,,,0.00,WeatherCatV1.20B785,2013-08-25 15:45:00,
2013-08-25 11:46:00,77.0,62.5,30.31,West,281,3.0,3.0,61,0.00,,,0.00,WeatherCatV1.20B785,2013-08-25 15:46:00,
2013-08-25 11:50:00,77.3,60.8,30.31,SW,236,1.0,1.0,57,0.00,,,0.00,WeatherCatV1.20B785,2013-08-25 15:50:00,
2013-08-25 11:51:00,77.4,60.5,30.31,SSW,205,0.0,2.0,56,0.00,,,0.00,WeatherCatV1.20B785,2013-08-25 15:51:00,
2013-08-25 11:55:00,78.1,62.1,30.31,SSE,168,1.0,2.0,58,0.00,,,0.00,WeatherCatV1.20B785,2013-08-25 15:55:00,
2013-08-25 11:56:00,78.1,62.6,30.31,NNW,340,4.0,4.0,59,0.00,,,0.00,WeatherCatV1.20B785,2013-08-25 15:56:00,
2013-08-25 12:00:00,77.5,57.9,30.31,SSE,154,1.0,5.0,51,0.00,,,0.00,WeatherCatV1.20B785,2013-08-25 16:00:00,
2013-08-25 12:01:00,77.4,56.7,30.31,SW,235,2.0,5.0,49,0.00,,,0.00,WeatherCatV1.20B785,2013-08-25 16:01:00,
2013-08-25 12:05:00,77.2,60.3,30.31,SE,133,2.0,2.0,56,0.00,,,0.00,WeatherCatV1.20B785,2013-08-25 16:05:00,
2013-08-25 12:06:00,77.2,59.2,30.31,SW,219,4.0,7.0,54,0.00,,,0.00,WeatherCatV1.20B785,2013-08-25 16:06:00,
2013-08-25 12:10:00,77.4,60.5,30.31,SSW,198,2.0,2.0,56,0.00,,,0.00,WeatherCatV1.20B785,2013-08-25 16:10:00,
2013-08-25 12:11:00,77.5,60.5,30.31,WSW,249,1.0,1.0,56,0.00,,,0.00,WeatherCatV1.20B785,2013-08-25 16:11:00,
2013-08-25 12:15:00,77.4,60.5,30.31,WSW,255,2.0,2.0,56,0.00,,,0.00,WeatherCatV1.20B785,2013-08-25 16:15:00,
2013-08-25 12:16:00,77.4,60.5,30.31,WSW,242,1.0,1.0,56,0.00,,,0.00,WeatherCatV1.20B785,2013-08-25 16:16:00,
2013-08-25 12:20:00,77.4,59.4,30.31,WSW,258,2.0,3.0,54,0.00,,,0.00,WeatherCatV1.20B785,2013-08-25 16:20:00,
2013-08-25 12:21:00,77.4,59.4,30.31,North,355,2.0,3.0,54,0.00,,,0.00,WeatherCatV1.20B785,2013-08-25 16:21:00,
2013-08-25 12:25:00,77.4,58.9,30.31,WNW,291,2.0,4.0,53,0.00,,,0.00,WeatherCatV1.20B785,2013-08-25 16:25:00,
2013-08-25 12:27:00,77.2,59.2,30.31,SSW,212,2.0,5.0,54,0.00,,,0.00,WeatherCatV1.20B785,2013-08-25 16:27:00,
2013-08-25 12:30:00,77.4,62.4,30.31,West,259,2.0,5.0,60,0.00,,,0.00,WeatherCatV1.20B785,2013-08-25 16:30:00,
2013-08-25 12:32:00,77.2,58.2,30.31,SW,228,4.0,6.0,52,0.00,,,0.00,WeatherCatV1.20B785,2013-08-25 16:32:00,
2013-08-25 12:35:00,77.0,57.5,30.30,WSW,258,3.0,3.0,51,0.00,,,0.00,WeatherCatV1.20B785,2013-08-25 16:35:00,
2013-08-25 12:37:00,77.0,57.5,30.30,West,266,1.0,5.0,51,0.00,,,0.00,WeatherCatV1.20B785,2013-08-25 16:37:00,
2013-08-25 12:40:00,77.3,58.8,30.30,WNW,287,3.0,3.0,53,0.00,,,0.00,WeatherCatV1.20B785,2013-08-25 16:40:00,
2013-08-25 12:42:00,77.8,60.3,30.30,SSW,212,1.0,2.0,55,0.00,,,0.00,WeatherCatV1.20B785,2013-08-25 16:42:00,
2013-08-25 12:45:00,78.2,58.6,30.30,WSW,251,1.0,5.0,51,0.00,,,0.00,WeatherCatV1.20B785,2013-08-25 16:45:00,
2013-08-25 12:47:00,78.1,59.5,30.30,WSW,249,0.0,5.0,53,0.00,,,0.00,WeatherCatV1.20B785,2013-08-25 16:47:00,
2013-08-25 12:50:00,78.2,60.2,30.30,West,273,1.0,2.0,54,0.00,,,0.00,WeatherCatV1.20B785,2013-08-25 16:50:00,
2013-08-25 12:52:00,78.4,58.8,30.29,West,266,0.0,3.0,51,0.00,,,0.00,WeatherCatV1.20B785,2013-08-25 16:52:00,
2013-08-25 12:55:00,78.2,56.3,30.29,West,265,2.0,6.0,47,0.00,,,0.00,WeatherCatV1.20B785,2013-08-25 16:55:00,
2013-08-25 12:57:00,77.9,56.6,30.29,WNW,288,2.0,6.0,48,0.00,,,0.00,WeatherCatV1.20B785,2013-08-25 16:57:00,
2013-08-25 13:00:00,77.7,55.8,30.29,West,267,2.0,2.0,47,0.00,,,0.00,WeatherCatV1.20B785,2013-08-25 17:00:00,
2013-08-25 13:02:00,77.8,57.1,30.29,South,175,3.0,5.0,49,0.00,,,0.00,WeatherCatV1.20B785,2013-08-25 17:02:00,
2013-08-25 13:05:00,78.1,56.8,30.29,WSW,242,3.0,3.0,48,0.00,,,0.00,WeatherCatV1.20B785,2013-08-25 17:05:00,
2013-08-25 13:07:00,78.3,57.5,30.29,West,263,6.0,6.0,49,0.00,,,0.00,WeatherCatV1.20B785,2013-08-25 17:07:00,
2013-08-25 13:10:00,78.1,55.6,30.29,WSW,253,2.0,7.0,46,0.00,,,0.00,WeatherCatV1.20B785,2013-08-25 17:10:00,
2013-08-25 13:12:00,78.0,57.8,30.29,NW,319,0.0,6.0,50,0.00,,,0.00,WeatherCatV1.20B785,2013-08-25 17:12:00,
2013-08-25 13:15:00,78.3,57.5,30.29,WSW,246,2.0,4.0,49,0.00,,,0.00,WeatherCatV1.20B785,2013-08-25 17:15:00,
2013-08-25 13:17:00,78.6,57.8,30.28,ENE,66,0.0,2.0,49,0.00,,,0.00,WeatherCatV1.20B785,2013-08-25 17:17:00,
2013-08-25 13:20:00,79.1,58.3,30.28,South,182,1.0,6.0,49,0.00,,,0.00,WeatherCatV1.20B785,2013-08-25 17:20:00,
2013-08-25 13:22:00,79.1,54.0,30.29,SW,215,7.0,10.0,42,0.00,,,0.00,WeatherCatV1.20B785,2013-08-25 17:22:00,
2013-08-25 13:25:00,78.9,54.5,30.29,SSW,204,3.0,8.0,43,0.00,,,0.00,WeatherCatV1.20B785,2013-08-25 17:25:00,
2013-08-25 13:27:00,79.0,53.9,30.29,WSW,238,2.0,6.0,42,0.00,,,0.00,WeatherCatV1.20B785,2013-08-25 17:27:00,
2013-08-25 13:30:00,79.2,56.6,30.29,WSW,237,5.0,5.0,46,0.00,,,0.00,WeatherCatV1.20B785,2013-08-25 17:30:00,
2013-08-25 13:32:00,79.5,58.6,30.29,WSW,251,1.0,2.0,49,0.00,,,0.00,WeatherCatV1.20B785,2013-08-25 17:32:00,
2013-08-25 13:35:00,79.9,59.6,30.28,SW,218,2.0,0.0,50,0.00,,,0.00,WeatherCatV1.20B785,2013-08-25 17:35:00,
2013-08-25 13:37:00,80.1,56.2,30.28,WSW,239,3.0,3.0,44,0.00,,,0.00,WeatherCatV1.20B785,2013-08-25 17:37:00,
2013-08-25 13:40:00,80.0,57.3,30.28,WSW,238,1.0,8.0,46,0.00,,,0.00,WeatherCatV1.20B785,2013-08-25 17:40:00,
2013-08-25 13:42:00,80.1,59.2,30.28,West,276,1.0,2.0,49,0.00,,,0.00,WeatherCatV1.20B785,2013-08-25 17:42:00,
2013-08-25 13:45:00,80.3,60.5,30.28,WSW,243,2.0,2.0,51,0.00,,,0.00,WeatherCatV1.20B785,2013-08-25 17:45:00,
2013-08-25 13:47:00,80.4,59.5,30.28,WSW,257,1.0,7.0,49,0.00,,,0.00,WeatherCatV1.20B785,2013-08-25 17:47:00,
2013-08-25 13:50:00,80.3,57.6,30.28,WSW,250,2.0,3.0,46,0.00,,,0.00,WeatherCatV1.20B785,2013-08-25 17:50:00,
2013-08-25 13:52:00,80.3,57.6,30.28,West,277,0.0,2.0,46,0.00,,,0.00,WeatherCatV1.20B785,2013-08-25 17:52:00,
2013-08-25 13:55:00,80.4,56.5,30.28,West,268,2.0,5.0,44,0.00,,,0.00,WeatherCatV1.20B785,2013-08-25 17:55:00,
2013-08-25 13:57:00,80.3,57.0,30.28,West,264,0.0,2.0,45,0.00,,,0.00,WeatherCatV1.20B785,2013-08-25 17:57:00,
2013-08-25 14:00:00,80.6,59.1,30.29,WSW,248,1.0,4.0,48,0.00,,,0.00,WeatherCatV1.20B785,2013-08-25 18:00:00,
2013-08-25 14:02:00,80.9,57.5,30.28,West,276,1.0,4.0,45,0.00,,,0.00,WeatherCatV1.20B785,2013-08-25 18:02:00,
2013-08-25 14:05:00,80.7,56.1,30.29,WSW,256,2.0,6.0,43,0.00,,,0.00,WeatherCatV1.20B785,2013-08-25 18:05:00,
2013-08-25 14:07:00,80.2,56.3,30.29,WSW,253,1.0,5.0,44,0.00,,,0.00,WeatherCatV1.20B785,2013-08-25 18:07:00,
2013-08-25 14:10:00,80.0,57.3,30.29,WSW,258,3.0,3.0,46,0.00,,,0.00,WeatherCatV1.20B785,2013-08-25 18:10:00,
2013-08-25 14:12:00,80.2,58.1,30.29,NNW,336,1.0,4.0,47,0.00,,,0.00,WeatherCatV1.20B785,2013-08-25 18:12:00,
2013-08-25 14:15:00,80.3,57.0,30.28,West,279,2.0,3.0,45,0.00,,,0.00,WeatherCatV1.20B785,2013-08-25 18:15:00,
2013-08-25 14:17:00,80.2,56.9,30.28,WNW,290,1.0,7.0,45,0.00,,,0.00,WeatherCatV1.20B785,2013-08-25 18:17:00,
2013-08-25 14:20:00,80.2,56.3,30.28,WNW,298,2.0,2.0,44,0.00,,,0.00,WeatherCatV1.20B785,2013-08-25 18:20:00,
2013-08-25 14:22:00,80.1,56.2,30.28,WSW,254,2.0,8.0,44,0.00,,,0.00,WeatherCatV1.20B785,2013-08-25 18:22:00,
2013-08-25 14:25:00,79.9,56.6,30.28,West,275,2.0,5.0,45,0.00,,,0.00,WeatherCatV1.20B785,2013-08-25 18:25:00,
2013-08-25 14:27:00,79.8,56.5,30.28,NW,318,1.0,3.0,45,0.00,,,0.00,WeatherCatV1.20B785,2013-08-25 18:27:00,
2013-08-25 14:30:00,79.8,58.3,30.28,WNW,303,2.0,3.0,48,0.00,,,0.00,WeatherCatV1.20B785,2013-08-25 18:30:00,
2013-08-25 14:32:00,79.7,55.8,30.27,North,356,5.0,5.0,44,0.00,,,0.00,WeatherCatV1.20B785,2013-08-25 18:32:00,
2013-08-25 14:35:00,79.6,57.0,30.27,NW,314,2.0,2.0,46,0.00,,,0.00,WeatherCatV1.20B785,2013-08-25 18:35:00,
2013-08-25 14:37:00,79.8,58.9,30.28,South,169,2.0,4.0,49,0.00,,,0.00,WeatherCatV1.20B785,2013-08-25 18:37:00,
2013-08-25 14:40:00,80.0,57.9,30.28,West,278,2.0,5.0,47,0.00,,,0.00,WeatherCatV1.20B785,2013-08-25 18:40:00,
2013-08-25 14:42:00,80.0,57.3,30.27,South,180,3.0,5.0,46,0.00,,,0.00,WeatherCatV1.20B785,2013-08-25 18:42:00,
2013-08-25 14:45:00,80.1,57.4,30.27,SW,235,2.0,2.0,46,0.00,,,0.00,WeatherCatV1.20B785,2013-08-25 18:45:00,
2013-08-25 14:47:00,80.1,58.0,30.28,WSW,240,3.0,6.0,47,0.00,,,0.00,WeatherCatV1.20B785,2013-08-25 18:47:00,
2013-08-25 14:50:00,80.1,57.4,30.27,West,262,3.0,6.0,46,0.00,,,0.00,WeatherCatV1.20B785,2013-08-25 18:50:00,
2013-08-25 14:52:00,80.0,57.3,30.27,SW,225,2.0,3.0,46,0.00,,,0.00,WeatherCatV1.20B785,2013-08-25 18:52:00,
2013-08-25 14:55:00,79.9,57.2,30.27,West,275,3.0,4.0,46,0.00,,,0.00,WeatherCatV1.20B785,2013-08-25 18:55:00,
2013-08-25 14:57:00,79.8,57.8,30.27,West,269,3.0,6.0,47,0.00,,,0.00,WeatherCatV1.20B785,2013-08-25 18:57:00,
2013-08-25 15:00:00,79.7,58.2,30.27,WNW,283,2.0,6.0,48,0.00,,,0.00,WeatherCatV1.20B785,2013-08-25 19:00:00,
2013-08-25 15:02:00,79.8,58.3,30.27,West,276,0.0,5.0,48,0.00,,,0.00,WeatherCatV1.20B785,2013-08-25 19:02:00,
2013-08-25 15:05:00,79.7,57.1,30.27,WNW,303,2.0,3.0,46,0.00,,,0.00,WeatherCatV1.20B785,2013-08-25 19:05:00,
2013-08-25 15:07:00,79.4,58.5,30.26,NNE,12,1.0,6.0,49,0.00,,,0.00,WeatherCatV1.20B785,2013-08-25 19:07:00,
2013-08-25 15:10:00,79.4,58.5,30.26,NW,325,2.0,2.0,49,0.00,,,0.00,WeatherCatV1.20B785,2013-08-25 19:10:00,
2013-08-25 15:12:00,79.5,57.5,30.26,West,269,1.0,4.0,47,0.00,,,0.00,WeatherCatV1.20B785,2013-08-25 19:12:00,
2013-08-25 15:15:00,79.6,59.3,30.26,West,275,2.0,3.0,50,0.00,,,0.00,WeatherCatV1.20B785,2013-08-25 19:15:00,
2013-08-25 15:17:00,79.8,58.3,30.26,West,267,3.0,7.0,48,0.00,,,0.00,WeatherCatV1.20B785,2013-08-25 19:17:00,
2013-08-25 15:20:00,79.7,57.7,30.26,West,266,2.0,6.0,47,0.00,,,0.00,WeatherCatV1.20B785,2013-08-25 19:20:00,
2013-08-25 15:22:00,79.7,57.1,30.26,WNW,287,0.0,3.0,46,0.00,,,0.00,WeatherCatV1.20B785,2013-08-25 19:22:00,
2013-08-25 15:25:00,79.8,57.8,30.26,WSW,256,2.0,2.0,47,0.00,,,0.00,WeatherCatV1.20B785,2013-08-25 19:25:00,
2013-08-25 15:27:00,80.2,58.7,30.26,West,262,0.0,0.0,48,0.00,,,0.00,WeatherCatV1.20B785,2013-08-25 19:27:00,
2013-08-25 15:30:00,80.4,59.5,30.26,West,262,1.0,2.0,49,0.00,,,0.00,WeatherCatV1.20B785,2013-08-25 19:30:00,
2013-08-25 15:32:00,80.8,58.7,30.25,SSW,212,1.0,1.0,47,0.00,,,0.00,WeatherCatV1.20B785,2013-08-25 19:32:00,
2013-08-25 15:35:00,80.8,60.4,30.25,SW,219,1.0,5.0,50,0.00,,,0.00,WeatherCatV1.20B785,2013-08-25 19:35:00,
2013-08-25 15:37:00,80.7,60.9,30.25,NNW,341,0.0,1.0,51,0.00,,,0.00,WeatherCatV1.20B785,2013-08-25 19:37:00,
2013-08-25 15:40:00,80.7,59.7,30.25,WNW,293,1.0,2.0,49,0.00,,,0.00,WeatherCatV1.20B785,2013-08-25 19:40:00,
2013-08-25 15:42:00,80.8,57.5,30.25,West,270,2.0,4.0,45,0.00,,,0.00,WeatherCatV1.20B785,2013-08-25 19:42:00,
2013-08-25 15:45:00,80.8,57.5,30.25,West,277,1.0,5.0,45,0.00,,,0.00,WeatherCatV1.20B785,2013-08-25 19:45:00,
2013-08-25 15:47:00,80.6,58.5,30.25,West,281,0.0,5.0,47,0.00,,,0.00,WeatherCatV1.20B785,2013-08-25 19:47:00,
2013-08-25 15:50:00,80.6,58.5,30.25,WSW,252,2.0,3.0,47,0.00,,,0.00,WeatherCatV1.20B785,2013-08-25 19:50:00,
2013-08-25 15:52:00,80.7,57.4,30.25,South,181,0.0,4.0,45,0.00,,,0.00,WeatherCatV1.20B785,2013-08-25 19:52:00,
2013-08-25 15:55:00,80.6,56.6,30.24,WSW,238,2.0,4.0,44,0.00,,,0.00,WeatherCatV1.20B785,2013-08-25 19:55:00,
2013-08-25 15:57:00,80.4,58.3,30.24,WSW,242,1.0,1.0,47,0.00,,,0.00,WeatherCatV1.20B785,2013-08-25 19:57:00,
2013-08-25 16:00:00,80.5,58.4,30.24,WSW,240,1.0,2.0,47,0.00,,,0.00,WeatherCatV1.20B785,2013-08-25 20:00:00,
2013-08-25 16:02:00,80.1,58.0,30.24,WSW,251,4.0,4.0,47,0.00,,,0.00,WeatherCatV1.20B785,2013-08-25 20:02:00,
2013-08-25 16:05:00,80.0,57.3,30.24,WSW,257,1.0,4.0,46,0.00,,,0.00,WeatherCatV1.20B785,2013-08-25 20:05:00,
2013-08-25 16:07:00,80.0,58.5,30.24,WSW,252,1.0,2.0,48,0.00,,,0.00,WeatherCatV1.20B785,2013-08-25 20:07:00,
2013-08-25 16:10:00,80.0,57.9,30.24,West,278,2.0,2.0,47,0.00,,,0.00,WeatherCatV1.20B785,2013-08-25 20:10:00,
2013-08-25 16:12:00,80.3,57.6,30.24,SSW,205,2.0,2.0,46,0.00,,,0.00,WeatherCatV1.20B785,2013-08-25 20:12:00,
2013-08-25 16:15:00,80.3,57.6,30.24,WSW,243,1.0,2.0,46,0.00,,,0.00,WeatherCatV1.20B785,2013-08-25 20:15:00,
2013-08-25 16:17:00,80.4,58.9,30.23,WSW,240,2.0,7.0,48,0.00,,,0.00,WeatherCatV1.20B785,2013-08-25 20:17:00,
2013-08-25 16:20:00,80.3,58.8,30.23,SW,216,2.0,5.0,48,0.00,,,0.00,WeatherCatV1.20B785,2013-08-25 20:20:00,
2013-08-25 16:22:00,80.3,59.9,30.23,WNW,294,0.0,2.0,50,0.00,,,0.00,WeatherCatV1.20B785,2013-08-25 20:22:00,
2013-08-25 16:25:00,80.4,60.0,30.23,WSW,253,2.0,2.0,50,0.00,,,0.00,WeatherCatV1.20B785,2013-08-25 20:25:00,
2013-08-25 16:27:00,80.5,59.5,30.23,WSW,248,0.0,5.0,49,0.00,,,0.00,WeatherCatV1.20B785,2013-08-25 20:27:00,
2013-08-25 16:30:00,80.5,59.6,30.23,WSW,254,2.0,4.0,49,0.00,,,0.00,WeatherCatV1.20B785,2013-08-25 20:30:00,
2013-08-25 16:32:00,81.2,61.9,30.23,West,259,1.0,2.0,52,0.00,,,0.00,WeatherCatV1.20B785,2013-08-25 20:32:00,
2013-08-25 16:35:00,81.3,60.8,30.23,WSW,247,1.0,2.0,50,0.00,,,0.00,WeatherCatV1.20B785,2013-08-25 20:35:00,
2013-08-25 16:37:00,81.7,61.8,30.23,SSW,208,2.0,3.0,51,0.00,,,0.00,WeatherCatV1.20B785,2013-08-25 20:37:00,
2013-08-25 16:40:00,81.7,61.2,30.23,West,265,0.0,2.0,50,0.00,,,0.00,WeatherCatV1.20B785,2013-08-25 20:40:00,
2013-08-25 16:42:00,81.5,61.0,30.23,West,261,0.0,2.0,50,0.00,,,0.00,WeatherCatV1.20B785,2013-08-25 20:42:00,
2013-08-25 16:45:00,81.5,61.0,30.23,SW,236,1.0,4.0,50,0.00,,,0.00,WeatherCatV1.20B785,2013-08-25 20:45:00,
2013-08-25 16:47:00,81.7,61.2,30.23,SW,225,2.0,5.0,50,0.00,,,0.00,WeatherCatV1.20B785,2013-08-25 20:47:00,
2013-08-25 16:50:00,81.6,61.1,30.23,WSW,241,1.0,2.0,50,0.00,,,0.00,WeatherCatV1.20B785,2013-08-25 20:50:00,
2013-08-25 16:52:00,81.6,61.1,30.23,SSW,204,1.0,2.0,50,0.00,,,0.00,WeatherCatV1.20B785,2013-08-25 20:52:00,
2013-08-25 16:55:00,81.5,63.2,30.22,SW,235,2.0,2.0,54,0.00,,,0.00,WeatherCatV1.20B785,2013-08-25 20:55:00,
2013-08-25 16:57:00,81.5,63.2,30.23,West,281,1.0,2.0,54,0.00,,,0.00,WeatherCatV1.20B785,2013-08-25 20:57:00,
2013-08-25 17:00:00,81.5,60.5,30.23,SW,227,2.0,3.0,49,0.00,,,0.00,WeatherCatV1.20B785,2013-08-25 21:00:00,
2013-08-25 17:02:00,81.4,60.4,30.23,WSW,248,1.0,3.0,49,0.00,,,0.00,WeatherCatV1.20B785,2013-08-25 21:02:00,
2013-08-25 17:05:00,80.8,61.0,30.23,WSW,248,1.0,5.0,51,0.00,,,0.00,WeatherCatV1.20B785,2013-08-25 21:05:00,
2013-08-25 17:07:00,80.8,61.0,30.23,WSW,252,1.0,5.0,51,0.00,,,0.00,WeatherCatV1.20B785,2013-08-25 21:07:00,
2013-08-25 17:10:00,80.4,61.1,30.23,West,261,1.0,2.0,52,0.00,,,0.00,WeatherCatV1.20B785,2013-08-25 21:10:00,
2013-08-25 17:12:00,80.4,62.2,30.23,West,272,1.0,2.0,54,0.00,,,0.00,WeatherCatV1.20B785,2013-08-25 21:12:00,
2013-08-25 17:15:00,80.8,62.6,30.22,West,265,1.0,2.0,54,0.00,,,0.00,WeatherCatV1.20B785,2013-08-25 21:15:00,
2013-08-25 17:17:00,80.9,61.6,30.22,SSW,203,0.0,3.0,52,0.00,,,0.00,WeatherCatV1.20B785,2013-08-25 21:17:00,
2013-08-25 17:20:00,81.0,63.8,30.22,WNW,295,1.0,0.0,56,0.00,,,0.00,WeatherCatV1.20B785,2013-08-25 21:20:00,
2013-08-25 17:22:00,81.0,64.3,30.22,NNE,30,0.0,0.0,57,0.00,,,0.00,WeatherCatV1.20B785,2013-08-25 21:22:00,
2013-08-25 17:25:00,81.0,62.2,30.22,WNW,294,2.0,2.0,53,0.00,,,0.00,WeatherCatV1.20B785,2013-08-25 21:25:00,
2013-08-25 17:27:00,81.0,62.2,30.22,SSW,205,3.0,3.0,53,0.00,,,0.00,WeatherCatV1.20B785,2013-08-25 21:27:00,
2013-08-25 17:30:00,80.8,62.6,30.22,West,263,1.0,1.0,54,0.00,,,0.00,WeatherCatV1.20B785,2013-08-25 21:30:00,
2013-08-25 17:32:00,80.8,62.6,30.22,South,176,2.0,2.0,54,0.00,,,0.00,WeatherCatV1.20B785,2013-08-25 21:32:00,
2013-08-25 17:35:00,81.3,63.5,30.22,WSW,249,1.0,0.0,55,0.00,,,0.00,WeatherCatV1.20B785,2013-08-25 21:35:00,
2013-08-25 17:37:00,81.4,63.7,30.22,WSW,250,1.0,1.0,55,0.00,,,0.00,WeatherCatV1.20B785,2013-08-25 21:37:00,
2013-08-25 17:40:00,81.8,61.9,30.21,WSW,245,1.0,2.0,51,0.00,,,0.00,WeatherCatV1.20B785,2013-08-25 21:40:00,
2013-08-25 17:42:00,81.8,62.4,30.21,SSW,210,0.0,2.0,52,0.00,,,0.00,WeatherCatV1.20B785,2013-08-25 21:42:00,
2013-08-25 17:45:00,82.0,63.2,30.21,SW,222,1.0,1.0,53,0.00,,,0.00,WeatherCatV1.20B785,2013-08-25 21:45:00,
2013-08-25 17:47:00,82.1,62.2,30.21,WNW,283,0.0,1.0,51,0.00,,,0.00,WeatherCatV1.20B785,2013-08-25 21:47:00,
2013-08-25 17:50:00,81.7,62.3,30.21,WSW,246,1.0,3.0,52,0.00,,,0.00,WeatherCatV1.20B785,2013-08-25 21:50:00,
2013-08-25 17:52:00,81.3,62.0,30.21,WSW,245,2.0,7.0,52,0.00,,,0.00,WeatherCatV1.20B785,2013-08-25 21:52:00,
2013-08-25 17:55:00,81.0,62.2,30.22,WSW,239,2.0,2.0,53,0.00,,,0.00,WeatherCatV1.20B785,2013-08-25 21:55:00,
2013-08-25 17:57:00,81.0,62.2,30.21,SSW,204,0.0,2.0,53,0.00,,,0.00,WeatherCatV1.20B785,2013-08-25 21:57:00,
2013-08-25 18:00:00,81.3,63.0,30.21,SW,235,1.0,4.0,54,0.00,,,0.00,WeatherCatV1.20B785,2013-08-25 22:00:00,
2013-08-25 18:02:00,81.2,61.9,30.21,WSW,245,1.0,6.0,52,0.00,,,0.00,WeatherCatV1.20B785,2013-08-25 22:02:00,
2013-08-25 18:05:00,81.1,62.3,30.21,SW,236,1.0,1.0,53,0.00,,,0.00,WeatherCatV1.20B785,2013-08-25 22:05:00,
2013-08-25 18:07:00,81.1,62.3,30.21,West,278,0.0,1.0,53,0.00,,,0.00,WeatherCatV1.20B785,2013-08-25 22:07:00,
2013-08-25 18:10:00,81.1,61.8,30.21,SW,228,1.0,3.0,52,0.00,,,0.00,WeatherCatV1.20B785,2013-08-25 22:10:00,
2013-08-25 18:12:00,81.0,62.8,30.21,South,181,3.0,3.0,54,0.00,,,0.00,WeatherCatV1.20B785,2013-08-25 22:12:00,
2013-08-25 18:15:00,80.9,63.2,30.21,SW,226,1.0,3.0,55,0.00,,,0.00,WeatherCatV1.20B785,2013-08-25 22:15:00,
2013-08-25 18:17:00,80.8,62.6,30.21,WNW,285,0.0,3.0,54,0.00,,,0.00,WeatherCatV1.20B785,2013-08-25 22:17:00,
2013-08-25 18:20:00,80.8,62.6,30.20,West,261,1.0,1.0,54,0.00,,,0.00,WeatherCatV1.20B785,2013-08-25 22:20:00,
2013-08-25 18:22:00,80.7,62.0,30.20,SSW,205,3.0,3.0,53,0.00,,,0.00,WeatherCatV1.20B785,2013-08-25 22:22:00,
2013-08-25 18:25:00,80.6,62.4,30.21,WSW,254,1.0,1.0,54,0.00,,,0.00,WeatherCatV1.20B785,2013-08-25 22:25:00,
2013-08-25 18:27:00,80.6,62.9,30.21,West,271,0.0,1.0,55,0.00,,,0.00,WeatherCatV1.20B785,2013-08-25 22:27:00,
2013-08-25 18:30:00,80.6,63.9,30.21,WSW,258,1.0,2.0,57,0.00,,,0.00,WeatherCatV1.20B785,2013-08-25 22:30:00,
2013-08-25 18:32:00,80.5,62.8,30.20,West,273,0.0,2.0,55,0.00,,,0.00,WeatherCatV1.20B785,2013-08-25 22:32:00,
2013-08-25 18:35:00,80.1,64.9,30.20,WSW,240,0.0,0.0,60,0.00,,,0.00,WeatherCatV1.20B785,2013-08-25 22:35:00,
2013-08-25 18:37:00,80.1,64.9,30.20,West,271,2.0,2.0,60,0.00,,,0.00,WeatherCatV1.20B785,2013-08-25 22:37:00,
2013-08-25 18:40:00,79.7,62.1,30.20,WSW,249,1.0,1.0,55,0.00,,,0.00,WeatherCatV1.20B785,2013-08-25 22:40:00,
2013-08-25 18:42:00,79.6,62.5,30.20,SW,223,2.0,2.0,56,0.00,,,0.00,WeatherCatV1.20B785,2013-08-25 22:42:00,
2013-08-25 18:45:00,79.3,62.7,30.20,SW,228,1.0,1.0,57,0.00,,,0.00,WeatherCatV1.20B785,2013-08-25 22:45:00,
2013-08-25 18:47:00,79.1,64.0,30.20,SSW,205,0.0,1.0,60,0.00,,,0.00,WeatherCatV1.20B785,2013-08-25 22:47:00,
2013-08-25 18:50:00,78.7,63.6,30.20,SW,215,0.0,0.0,60,0.00,,,0.00,WeatherCatV1.20B785,2013-08-25 22:50:00,
2013-08-25 18:52:00,78.4,64.3,30.20,SSW,208,0.0,0.0,62,0.00,,,0.00,WeatherCatV1.20B785,2013-08-25 22:52:00,
2013-08-25 18:55:00,77.6,64.0,30.20,SSW,212,0.0,3.0,63,0.00,,,0.00,WeatherCatV1.20B785,2013-08-25 22:55:00,
2013-08-25 18:57:00,77.1,64.4,30.20,SW,215,2.0,3.0,65,0.00,,,0.00,WeatherCatV1.20B785,2013-08-25 22:57:00,
2013-08-25 19:00:00,76.0,65.1,30.19,SW,219,1.0,0.0,69,0.00,,,0.00,WeatherCatV1.20B785,2013-08-25 23:00:00,
2013-08-25 19:02:00,75.5,64.6,30.19,SW,222,0.0,0.0,69,0.00,,,0.00,WeatherCatV1.20B785,2013-08-25 23:02:00,
2013-08-25 19:05:00,74.7,64.7,30.19,SW,220,1.0,1.0,71,0.00,,,0.00,WeatherCatV1.20B785,2013-08-25 23:05:00,
2013-08-25 19:07:00,74.4,64.0,30.19,SSW,207,0.0,1.0,70,0.00,,,0.00,WeatherCatV1.20B785,2013-08-25 23:07:00,
2013-08-25 19:10:00,74.0,64.0,30.19,SSW,213,0.0,1.0,71,0.00,,,0.00,WeatherCatV1.20B785,2013-08-25 23:10:00,
2013-08-25 19:12:00,73.7,64.1,30.19,SW,224,0.0,1.0,72,0.00,,,0.00,WeatherCatV1.20B785,2013-08-25 23:12:00,
2013-08-25 19:15:00,73.2,64.4,30.19,SW,222,0.0,1.0,74,0.00,,,0.00,WeatherCatV1.20B785,2013-08-25 23:15:00,
2013-08-25 19:17:00,72.9,64.1,30.19,SW,231,0.0,1.0,74,0.00,,,0.00,WeatherCatV1.20B785,2013-08-25 23:17:00,
2013-08-25 19:20:00,72.6,63.8,30.19,SW,228,0.0,0.0,74,0.00,,,0.00,WeatherCatV1.20B785,2013-08-25 23:20:00,
2013-08-25 19:22:00,72.4,64.4,30.19,SW,231,0.0,0.0,76,0.00,,,0.00,WeatherCatV1.20B785,2013-08-25 23:22:00,
2013-08-25 19:25:00,72.1,64.1,30.19,SW,230,0.0,0.0,76,0.00,,,0.00,WeatherCatV1.20B785,2013-08-25 23:25:00,
2013-08-25 19:27:00,71.9,63.9,30.19,SW,221,0.0,1.0,76,0.00,,,0.00,WeatherCatV1.20B785,2013-08-25 23:27:00,
2013-08-25 19:30:00,71.5,63.9,30.19,SW,223,0.0,1.0,77,0.00,,,0.00,WeatherCatV1.20B785,2013-08-25 23:30:00,
2013-08-25 19:32:00,71.2,64.0,30.19,SW,217,0.0,1.0,78,0.00,,,0.00,WeatherCatV1.20B785,2013-08-25 23:32:00,
2013-08-25 19:35:00,70.9,63.7,30.19,SW,218,0.0,0.0,78,0.00,,,0.00,WeatherCatV1.20B785,2013-08-25 23:35:00,
2013-08-25 19:37:00,70.6,63.8,30.19,SSW,212,0.0,1.0,79,0.00,,,0.00,WeatherCatV1.20B785,2013-08-25 23:37:00,
2013-08-25 19:40:00,70.3,63.5,30.19,SW,214,0.0,1.0,79,0.00,,,0.00,WeatherCatV1.20B785,2013-08-25 23:40:00,
2013-08-25 19:42:00,70.1,63.3,30.19,SW,219,1.0,2.0,79,0.00,,,0.00,WeatherCatV1.20B785,2013-08-25 23:42:00,
2013-08-25 19:45:00,69.8,63.3,30.19,SW,219,0.0,0.0,80,0.00,,,0.00,WeatherCatV1.20B785,2013-08-25 23:45:00,
2013-08-25 19:47:00,69.6,63.2,30.19,SSW,210,0.0,1.0,80,0.00,,,0.00,WeatherCatV1.20B785,2013-08-25 23:47:00,
2013-08-25 19:50:00,69.4,63.0,30.19,SW,217,0.0,1.0,80,0.00,,,0.00,WeatherCatV1.20B785,2013-08-25 23:50:00,
2013-08-25 19:52:00,69.2,63.1,30.19,SSW,212,0.0,1.0,81,0.00,,,0.00,WeatherCatV1.20B785,2013-08-25 23:52:00,
2013-08-25 19:55:00,68.9,62.8,30.18,SW,214,0.0,2.0,81,0.00,,,0.00,WeatherCatV1.20B785,2013-08-25 23:55:00,
2013-08-25 19:57:00,68.8,63.1,30.18,SW,219,0.0,2.0,82,0.00,,,0.00,WeatherCatV1.20B785,2013-08-25 23:57:00,
2013-08-25 20:00:00,68.6,62.5,30.19,SW,214,1.0,0.0,81,0.00,,,0.00,WeatherCatV1.20B785,2013-08-26 00:00:00,
2013-08-25 20:02:00,68.4,62.7,30.19,SSW,205,0.0,0.0,82,0.00,,,0.00,WeatherCatV1.20B785,2013-08-26 00:02:00,
2013-08-25 20:05:00,68.1,62.0,30.19,SSW,210,1.0,1.0,81,0.00,,,0.00,WeatherCatV1.20B785,2013-08-26 00:05:00,
2013-08-25 20:07:00,67.9,62.2,30.18,SSW,203,0.0,1.0,82,0.00,,,0.00,WeatherCatV1.20B785,2013-08-26 00:07:00,
2013-08-25 20:10:00,67.8,62.4,30.19,SSW,206,0.0,1.0,83,0.00,,,0.00,WeatherCatV1.20B785,2013-08-26 00:10:00,
2013-08-25 20:12:00,67.7,62.0,30.18,SSW,208,1.0,2.0,82,0.00,,,0.00,WeatherCatV1.20B785,2013-08-26 00:12:00,
2013-08-25 20:15:00,67.4,61.7,30.18,SSW,209,1.0,2.0,82,0.00,,,0.00,WeatherCatV1.20B785,2013-08-26 00:15:00,
2013-08-25 20:17:00,67.4,61.7,30.18,SSW,199,0.0,2.0,82,0.00,,,0.00,WeatherCatV1.20B785,2013-08-26 00:17:00,
2013-08-25 20:20:00,67.2,61.9,30.19,SSW,207,1.0,1.0,83,0.00,,,0.00,WeatherCatV1.20B785,2013-08-26 00:20:00,
2013-08-25 20:22:00,67.2,61.8,30.18,SW,217,1.0,2.0,83,0.00,,,0.00,WeatherCatV1.20B785,2013-08-26 00:22:00,
2013-08-25 20:25:00,66.9,61.6,30.18,SSW,209,1.0,0.0,83,0.00,,,0.00,WeatherCatV1.20B785,2013-08-26 00:25:00,
2013-08-25 20:27:00,66.9,61.9,30.18,SSW,206,0.0,0.0,84,0.00,,,0.00,WeatherCatV1.20B785,2013-08-26 00:27:00,
2013-08-25 20:30:00,66.6,61.6,30.19,SSW,206,0.0,0.0,84,0.00,,,0.00,WeatherCatV1.20B785,2013-08-26 00:30:00,
2013-08-25 20:32:00,66.5,61.8,30.19,SSW,205,0.0,0.0,85,0.00,,,0.00,WeatherCatV1.20B785,2013-08-26 00:32:00,
2013-08-25 20:35:00,66.1,61.5,30.19,SSW,205,0.0,0.0,85,0.00,,,0.00,WeatherCatV1.20B785,2013-08-26 00:35:00,
2013-08-25 20:37:00,66.0,61.3,30.19,SSW,206,0.0,0.0,85,0.00,,,0.00,WeatherCatV1.20B785,2013-08-26 00:37:00,
2013-08-25 20:40:00,65.7,61.0,30.19,SSW,205,0.0,0.0,85,0.00,,,0.00,WeatherCatV1.20B785,2013-08-26 00:40:00,
2013-08-25 20:42:00,65.6,61.0,30.19,SSW,206,0.0,0.0,85,0.00,,,0.00,WeatherCatV1.20B785,2013-08-26 00:42:00,
2013-08-25 20:45:00,65.5,60.5,30.19,SSW,206,0.0,0.0,84,0.00,,,0.00,WeatherCatV1.20B785,2013-08-26 00:45:00,
2013-08-25 20:47:00,65.5,60.5,30.19,SSW,212,0.0,2.0,84,0.00,,,0.00,WeatherCatV1.20B785,2013-08-26 00:47:00,
2013-08-25 20:50:00,65.3,61.0,30.19,SSW,205,0.0,0.0,86,0.00,,,0.00,WeatherCatV1.20B785,2013-08-26 00:50:00,
2013-08-25 20:52:00,65.3,61.0,30.19,SSW,204,0.0,0.0,86,0.00,,,0.00,WeatherCatV1.20B785,2013-08-26 00:52:00,
2013-08-25 20:55:00,65.1,60.8,30.19,SSW,204,0.0,0.0,86,0.00,,,0.00,WeatherCatV1.20B785,2013-08-26 00:55:00,
2013-08-25 20:57:00,65.1,60.8,30.19,SSW,204,0.0,0.0,86,0.00,,,0.00,WeatherCatV1.20B785,2013-08-26 00:57:00,
2013-08-25 21:00:00,64.9,60.6,30.19,SSW,204,0.0,0.0,86,0.00,,,0.00,WeatherCatV1.20B785,2013-08-26 01:00:00,
2013-08-25 21:02:00,64.8,60.5,30.19,SSW,203,0.0,0.0,86,0.00,,,0.00,WeatherCatV1.20B785,2013-08-26 01:02:00,
2013-08-25 21:05:00,64.6,60.3,30.19,SSW,203,0.0,0.0,86,0.00,,,0.00,WeatherCatV1.20B785,2013-08-26 01:05:00,
2013-08-25 21:07:00,64.5,60.2,30.19,SSW,201,0.0,0.0,86,0.00,,,0.00,WeatherCatV1.20B785,2013-08-26 01:07:00,
2013-08-25 21:10:00,64.3,60.0,30.19,SSW,199,0.0,0.0,86,0.00,,,0.00,WeatherCatV1.20B785,2013-08-26 01:10:00,
2013-08-25 21:12:00,64.2,59.9,30.19,SSW,203,0.0,0.0,86,0.00,,,0.00,WeatherCatV1.20B785,2013-08-26 01:12:00,
2013-08-25 21:15:00,64.0,59.7,30.19,SSW,196,0.0,0.0,86,0.00,,,0.00,WeatherCatV1.20B785,2013-08-26 01:15:00,
2013-08-25 21:17:00,64.0,60.0,30.19,SSW,195,0.0,0.0,87,0.00,,,0.00,WeatherCatV1.20B785,2013-08-26 01:17:00,
2013-08-25 21:20:00,63.9,60.0,30.19,SSW,196,0.0,1.0,87,0.00,,,0.00,WeatherCatV1.20B785,2013-08-26 01:20:00,
2013-08-25 21:22:00,63.8,59.8,30.20,SSE,167,0.0,1.0,87,0.00,,,0.00,WeatherCatV1.20B785,2013-08-26 01:22:00,
2013-08-25 21:25:00,63.7,59.8,30.20,South,175,0.0,0.0,87,0.00,,,0.00,WeatherCatV1.20B785,2013-08-26 01:25:00,
2013-08-25 21:27:00,63.7,59.8,30.20,SSE,166,0.0,0.0,87,0.00,,,0.00,WeatherCatV1.20B785,2013-08-26 01:27:00,
2013-08-25 21:30:00,63.5,59.6,30.20,South,169,0.0,0.0,87,0.00,,,0.00,WeatherCatV1.20B785,2013-08-26 01:30:00,
2013-08-25 21:32:00,63.5,59.6,30.20,SSE,166,0.0,0.0,87,0.00,,,0.00,WeatherCatV1.20B785,2013-08-26 01:32:00,
2013-08-25 21:35:00,63.3,59.4,30.20,SSE,167,0.0,1.0,87,0.00,,,0.00,WeatherCatV1.20B785,2013-08-26 01:35:00,
2013-08-25 21:37:00,63.3,59.4,30.20,SSE,164,0.0,2.0,87,0.00,,,0.00,WeatherCatV1.20B785,2013-08-26 01:37:00,
2013-08-25 21:40:00,63.2,59.3,30.20,SSE,167,0.0,3.0,87,0.00,,,0.00,WeatherCatV1.20B785,2013-08-26 01:40:00,
2013-08-25 21:42:00,63.2,59.3,30.20,SW,219,0.0,0.0,87,0.00,,,0.00,WeatherCatV1.20B785,2013-08-26 01:42:00,
2013-08-25 21:45:00,63.1,59.2,30.20,SSW,198,0.0,0.0,87,0.00,,,0.00,WeatherCatV1.20B785,2013-08-26 01:45:00,
2013-08-25 21:47:00,63.0,59.1,30.20,SW,218,0.0,0.0,87,0.00,,,0.00,WeatherCatV1.20B785,2013-08-26 01:47:00,
2013-08-25 21:50:00,62.9,59.0,30.20,SSW,213,0.0,1.0,87,0.00,,,0.00,WeatherCatV1.20B785,2013-08-26 01:50:00,
2013-08-25 21:52:00,62.9,59.0,30.20,SW,218,0.0,0.0,87,0.00,,,0.00,WeatherCatV1.20B785,2013-08-26 01:52:00,
2013-08-25 21:55:00,62.8,59.2,30.20,SW,216,0.0,0.0,88,0.00,,,0.00,WeatherCatV1.20B785,2013-08-26 01:55:00,
2013-08-25 21:57:00,62.7,59.1,30.20,SW,217,0.0,0.0,88,0.00,,,0.00,WeatherCatV1.20B785,2013-08-26 01:57:00,
2013-08-25 22:00:00,62.6,59.0,30.20,SW,217,0.0,0.0,88,0.00,,,0.00,WeatherCatV1.20B785,2013-08-26 02:00:00,
2013-08-25 22:02:00,62.5,58.9,30.20,SW,217,0.0,0.0,88,0.00,,,0.00,WeatherCatV1.20B785,2013-08-26 02:02:00,
2013-08-25 22:05:00,62.2,58.6,30.20,SW,217,0.0,0.0,88,0.00,,,0.00,WeatherCatV1.20B785,2013-08-26 02:05:00,
2013-08-25 22:07:00,62.1,58.5,30.20,SW,217,0.0,0.0,88,0.00,,,0.00,WeatherCatV1.20B785,2013-08-26 02:07:00,
2013-08-25 22:10:00,61.8,58.2,30.21,SW,217,0.0,0.0,88,0.00,,,0.00,WeatherCatV1.20B785,2013-08-26 02:10:00,
2013-08-25 22:12:00,61.7,58.1,30.20,SW,217,0.0,0.0,88,0.00,,,0.00,WeatherCatV1.20B785,2013-08-26 02:12:00,
2013-08-25 22:15:00,61.5,57.9,30.20,SW,217,0.0,0.0,88,0.00,,,0.00,WeatherCatV1.20B785,2013-08-26 02:15:00,
2013-08-25 22:18:00,61.3,57.7,30.20,SW,217,0.0,0.0,88,0.00,,,0.00,WeatherCatV1.20B785,2013-08-26 02:18:00,
2013-08-25 22:20:00,61.3,57.7,30.20,SW,217,0.0,0.0,88,0.00,,,0.00,WeatherCatV1.20B785,2013-08-26 02:20:00,
2013-08-25 22:23:00,61.3,58.0,30.20,SW,217,0.0,0.0,89,0.00,,,0.00,WeatherCatV1.20B785,2013-08-26 02:23:00,
2013-08-25 22:25:00,61.3,58.0,30.20,SW,217,0.0,0.0,89,0.00,,,0.00,WeatherCatV1.20B785,2013-08-26 02:25:00,
2013-08-25 22:28:00,61.3,58.0,30.20,SSW,203,0.0,1.0,89,0.00,,,0.00,WeatherCatV1.20B785,2013-08-26 02:28:00,
2013-08-25 22:30:00,61.4,58.1,30.20,SSW,208,0.0,0.0,89,0.00,,,0.00,WeatherCatV1.20B785,2013-08-26 02:30:00,
2013-08-25 22:33:00,61.8,58.5,30.20,SSW,203,0.0,0.0,89,0.00,,,0.00,WeatherCatV1.20B785,2013-08-26 02:33:00,
2013-08-25 22:35:00,62.1,58.5,30.20,SSW,204,0.0,0.0,88,0.00,,,0.00,WeatherCatV1.20B785,2013-08-26 02:35:00,
2013-08-25 22:38:00,62.6,59.0,30.20,SSW,203,0.0,0.0,88,0.00,,,0.00,WeatherCatV1.20B785,2013-08-26 02:38:00,
2013-08-25 22:40:00,62.8,59.2,30.20,SSW,203,0.0,0.0,88,0.00,,,0.00,WeatherCatV1.20B785,2013-08-26 02:40:00,
2013-08-25 22:43:00,63.0,59.1,30.20,SSW,203,0.0,0.0,87,0.00,,,0.00,WeatherCatV1.20B785,2013-08-26 02:43:00,
2013-08-25 22:45:00,63.1,59.2,30.20,SSW,204,0.0,1.0,87,0.00,,,0.00,WeatherCatV1.20B785,2013-08-26 02:45:00,
2013-08-25 22:48:00,63.8,59.5,30.20,SW,224,0.0,0.0,86,0.00,,,0.00,WeatherCatV1.20B785,2013-08-26 02:48:00,
2013-08-25 22:50:00,63.9,59.6,30.20,SW,219,0.0,0.0,86,0.00,,,0.00,WeatherCatV1.20B785,2013-08-26 02:50:00,
2013-08-25 22:53:00,63.9,59.3,30.20,SSW,208,0.0,0.0,85,0.00,,,0.00,WeatherCatV1.20B785,2013-08-26 02:53:00,
2013-08-25 22:55:00,63.9,59.3,30.20,SW,215,0.0,0.0,85,0.00,,,0.00,WeatherCatV1.20B785,2013-08-26 02:55:00,
2013-08-25 22:58:00,63.7,59.1,30.21,South,190,0.0,0.0,85,0.00,,,0.00,WeatherCatV1.20B785,2013-08-26 02:58:00,
2013-08-25 23:00:00,63.6,59.3,30.21,SSW,199,0.0,0.0,86,0.00,,,0.00,WeatherCatV1.20B785,2013-08-26 03:00:00,
2013-08-25 23:03:00,63.1,58.8,30.21,South,190,0.0,0.0,86,0.00,,,0.00,WeatherCatV1.20B785,2013-08-26 03:03:00,
2013-08-25 23:05:00,62.9,59.0,30.21,SSW,192,0.0,0.0,87,0.00,,,0.00,WeatherCatV1.20B785,2013-08-26 03:05:00,
2013-08-25 23:08:00,62.5,58.6,30.21,South,190,0.0,0.0,87,0.00,,,0.00,WeatherCatV1.20B785,2013-08-26 03:08:00,
2013-08-25 23:10:00,62.3,58.4,30.21,South,191,0.0,0.0,87,0.00,,,0.00,WeatherCatV1.20B785,2013-08-26 03:10:00,
2013-08-25 23:13:00,61.9,58.3,30.21,South,190,0.0,0.0,88,0.00,,,0.00,WeatherCatV1.20B785,2013-08-26 03:13:00,
2013-08-25 23:15:00,61.7,58.1,30.21,South,190,0.0,0.0,88,0.00,,,0.00,WeatherCatV1.20B785,2013-08-26 03:15:00,
2013-08-25 23:18:00,61.4,57.8,30.21,South,190,0.0,0.0,88,0.00,,,0.00,WeatherCatV1.20B785,2013-08-26 03:18:00,
2013-08-25 23:20:00,61.3,57.7,30.20,South,190,0.0,0.0,88,0.00,,,0.00,WeatherCatV1.20B785,2013-08-26 03:20:00,
2013-08-25 23:23:00,61.2,57.6,30.20,SSW,210,0.0,3.0,88,0.00,,,0.00,WeatherCatV1.20B785,2013-08-26 03:23:00,
2013-08-25 23:25:00,61.6,58.3,30.20,SSW,201,0.0,1.0,89,0.00,,,0.00,WeatherCatV1.20B785,2013-08-26 03:25:00,
2013-08-25 23:28:00,62.1,58.5,30.20,SSW,194,2.0,4.0,88,0.00,,,0.00,WeatherCatV1.20B785,2013-08-26 03:28:00,
2013-08-25 23:30:00,63.3,59.4,30.20,SSW,205,0.0,3.0,87,0.00,,,0.00,WeatherCatV1.20B785,2013-08-26 03:30:00,
2013-08-25 23:33:00,63.9,59.6,30.20,SSW,211,0.0,3.0,86,0.00,,,0.00,WeatherCatV1.20B785,2013-08-26 03:33:00,
2013-08-25 23:35:00,64.7,59.8,30.20,SSW,205,0.0,0.0,84,0.00,,,0.00,WeatherCatV1.20B785,2013-08-26 03:35:00,
2013-08-25 23:38:00,65.0,60.0,30.20,SW,221,0.0,1.0,84,0.00,,,0.00,WeatherCatV1.20B785,2013-08-26 03:38:00,
2013-08-25 23:40:00,65.5,60.2,30.19,SSW,213,0.0,3.0,83,0.00,,,0.00,WeatherCatV1.20B785,2013-08-26 03:40:00,
2013-08-25 23:43:00,65.7,60.0,30.19,SSW,210,2.0,3.0,82,0.00,,,0.00,WeatherCatV1.20B785,2013-08-26 03:43:00,
2013-08-25 23:45:00,66.4,60.4,30.18,SSW,212,1.0,4.0,81,0.00,,,0.00,WeatherCatV1.20B785,2013-08-26 03:45:00,
2013-08-25 23:48:00,66.7,60.3,30.18,SW,219,1.0,4.0,80,0.00,,,0.00,WeatherCatV1.20B785,2013-08-26 03:48:00,
2013-08-25 23:50:00,67.1,60.7,30.19,SW,230,1.0,0.0,80,0.00,,,0.00,WeatherCatV1.20B785,2013-08-26 03:50:00,
2013-08-25 23:53:00,67.1,60.7,30.19,WSW,248,1.0,2.0,80,0.00,,,0.00,WeatherCatV1.20B785,2013-08-26 03:53:00,
2013-08-25 23:55:00,67.0,60.3,30.19,WSW,240,1.0,1.0,79,0.00,,,0.00,WeatherCatV1.20B785,2013-08-26 03:55:00,
2013-08-25 23:58:00,67.1,60.4,30.19,WSW,246,0.0,4.0,79,0.00,,,0.00,WeatherCatV1.20B785,2013-08-26 03:58:00,